sensor_id;sensor_type;location;lat;lon;timestamp;P1;durP1;ratioP1;P2;durP2;ratioP2
21034;SDS011;10676;50.848;3.272;2023-05-16T00:01:49;13.87;;;6.83;;
21034;SDS011;10676;50.848;3.272;2023-05-16T00:04:15;22.83;;;6.80;;
21034;SDS011;10676;50.848;3.272;2023-05-16T00:06:41;20.17;;;7.63;;
21034;SDS011;10676;50.848;3.272;2023-05-16T00:09:07;19.23;;;8.00;;
21034;SDS011;10676;50.848;3.272;2023-05-16T00:11:32;21.58;;;7.78;;
21034;SDS011;10676;50.848;3.272;2023-05-16T00:13:58;18.43;;;7.37;;
21034;SDS011;10676;50.848;3.272;2023-05-16T00:16:25;17.83;;;7.20;;
21034;SDS011;10676;50.848;3.272;2023-05-16T00:18:53;21.17;;;7.97;;
21034;SDS011;10676;50.848;3.272;2023-05-16T00:21:21;16.20;;;7.33;;
21034;SDS011;10676;50.848;3.272;2023-05-16T00:23:47;25.03;;;7.10;;
21034;SDS011;10676;50.848;3.272;2023-05-16T00:26:13;25.80;;;6.77;;
21034;SDS011;10676;50.848;3.272;2023-05-16T00:28:39;15.93;;;6.73;;
21034;SDS011;10676;50.848;3.272;2023-05-16T00:31:05;21.77;;;6.70;;
21034;SDS011;10676;50.848;3.272;2023-05-16T00:33:30;20.90;;;7.33;;
21034;SDS011;10676;50.848;3.272;2023-05-16T00:35:57;18.53;;;7.23;;
21034;SDS011;10676;50.848;3.272;2023-05-16T00:38:23;16.53;;;7.63;;
21034;SDS011;10676;50.848;3.272;2023-05-16T00:40:50;21.80;;;7.67;;
21034;SDS011;10676;50.848;3.272;2023-05-16T00:43:16;22.17;;;7.67;;
21034;SDS011;10676;50.848;3.272;2023-05-16T00:45:41;20.00;;;7.07;;
21034;SDS011;10676;50.848;3.272;2023-05-16T00:48:08;12.63;;;7.53;;
21034;SDS011;10676;50.848;3.272;2023-05-16T00:50:35;21.13;;;6.90;;
21034;SDS011;10676;50.848;3.272;2023-05-16T00:53:01;15.80;;;6.87;;
21034;SDS011;10676;50.848;3.272;2023-05-16T00:55:28;24.33;;;7.70;;
21034;SDS011;10676;50.848;3.272;2023-05-16T00:57:54;25.20;;;7.57;;
21034;SDS011;10676;50.848;3.272;2023-05-16T01:00:22;19.30;;;7.90;;
21034;SDS011;10676;50.848;3.272;2023-05-16T01:02:47;17.27;;;8.13;;
21034;SDS011;10676;50.848;3.272;2023-05-16T01:05:15;23.13;;;7.53;;
21034;SDS011;10676;50.848;3.272;2023-05-16T01:07:41;22.87;;;8.60;;
21034;SDS011;10676;50.848;3.272;2023-05-16T01:10:07;24.03;;;8.27;;
21034;SDS011;10676;50.848;3.272;2023-05-16T01:12:44;15.07;;;8.13;;
21034;SDS011;10676;50.848;3.272;2023-05-16T01:15:26;21.23;;;8.23;;
21034;SDS011;10676;50.848;3.272;2023-05-16T01:20:46;24.83;;;6.80;;
21034;SDS011;10676;50.848;3.272;2023-05-16T01:23:30;23.37;;;7.77;;
21034;SDS011;10676;50.848;3.272;2023-05-16T01:28:31;21.63;;;7.33;;
21034;SDS011;10676;50.848;3.272;2023-05-16T01:30:57;23.67;;;7.33;;
21034;SDS011;10676;50.848;3.272;2023-05-16T01:33:24;14.17;;;7.40;;
21034;SDS011;10676;50.848;3.272;2023-05-16T01:35:54;18.00;;;7.57;;
21034;SDS011;10676;50.848;3.272;2023-05-16T01:38:33;21.30;;;7.10;;
21034;SDS011;10676;50.848;3.272;2023-05-16T01:41:08;16.47;;;6.63;;
21034;SDS011;10676;50.848;3.272;2023-05-16T01:43:44;19.47;;;7.20;;
21034;SDS011;10676;50.848;3.272;2023-05-16T01:46:20;17.83;;;7.07;;
21034;SDS011;10676;50.848;3.272;2023-05-16T01:51:18;23.48;;;7.13;;
21034;SDS011;10676;50.848;3.272;2023-05-16T01:53:46;16.43;;;7.20;;
21034;SDS011;10676;50.848;3.272;2023-05-16T01:56:15;20.43;;;7.27;;
21034;SDS011;10676;50.848;3.272;2023-05-16T01:58:41;22.37;;;7.47;;
21034;SDS011;10676;50.848;3.272;2023-05-16T02:01:08;15.47;;;7.87;;
21034;SDS011;10676;50.848;3.272;2023-05-16T02:03:34;16.47;;;7.47;;
21034;SDS011;10676;50.848;3.272;2023-05-16T02:05:59;28.03;;;7.87;;
21034;SDS011;10676;50.848;3.272;2023-05-16T02:08:26;16.43;;;6.73;;
21034;SDS011;10676;50.848;3.272;2023-05-16T02:10:52;18.93;;;6.87;;
21034;SDS011;10676;50.848;3.272;2023-05-16T02:13:18;17.60;;;7.00;;
21034;SDS011;10676;50.848;3.272;2023-05-16T02:15:44;19.23;;;7.90;;
21034;SDS011;10676;50.848;3.272;2023-05-16T02:18:10;13.33;;;7.63;;
21034;SDS011;10676;50.848;3.272;2023-05-16T02:20:36;21.63;;;8.00;;
21034;SDS011;10676;50.848;3.272;2023-05-16T02:23:02;21.70;;;7.87;;
21034;SDS011;10676;50.848;3.272;2023-05-16T02:25:28;24.33;;;7.33;;
21034;SDS011;10676;50.848;3.272;2023-05-16T02:27:53;20.23;;;8.17;;
21034;SDS011;10676;50.848;3.272;2023-05-16T02:30:20;16.93;;;7.30;;
21034;SDS011;10676;50.848;3.272;2023-05-16T02:32:46;16.47;;;7.07;;
21034;SDS011;10676;50.848;3.272;2023-05-16T02:35:13;20.70;;;7.80;;
21034;SDS011;10676;50.848;3.272;2023-05-16T02:37:40;26.33;;;8.20;;
21034;SDS011;10676;50.848;3.272;2023-05-16T02:40:06;19.37;;;8.40;;
21034;SDS011;10676;50.848;3.272;2023-05-16T02:42:33;25.40;;;9.23;;
21034;SDS011;10676;50.848;3.272;2023-05-16T02:44:58;15.33;;;8.43;;
21034;SDS011;10676;50.848;3.272;2023-05-16T02:47:24;17.83;;;8.13;;
21034;SDS011;10676;50.848;3.272;2023-05-16T02:49:50;15.00;;;8.83;;
21034;SDS011;10676;50.848;3.272;2023-05-16T02:52:17;17.63;;;8.40;;
21034;SDS011;10676;50.848;3.272;2023-05-16T02:54:43;17.40;;;8.30;;
21034;SDS011;10676;50.848;3.272;2023-05-16T02:57:09;23.93;;;9.80;;
21034;SDS011;10676;50.848;3.272;2023-05-16T02:59:34;30.33;;;9.37;;
21034;SDS011;10676;50.848;3.272;2023-05-16T03:02:00;20.60;;;9.03;;
21034;SDS011;10676;50.848;3.272;2023-05-16T03:04:26;20.67;;;8.93;;
21034;SDS011;10676;50.848;3.272;2023-05-16T03:06:52;18.67;;;8.63;;
21034;SDS011;10676;50.848;3.272;2023-05-16T03:09:17;21.40;;;8.83;;
21034;SDS011;10676;50.848;3.272;2023-05-16T03:11:44;21.67;;;8.73;;
21034;SDS011;10676;50.848;3.272;2023-05-16T03:14:10;29.87;;;9.40;;
21034;SDS011;10676;50.848;3.272;2023-05-16T03:16:36;23.63;;;10.70;;
21034;SDS011;10676;50.848;3.272;2023-05-16T03:19:02;20.83;;;8.80;;
21034;SDS011;10676;50.848;3.272;2023-05-16T03:21:31;23.50;;;10.83;;
21034;SDS011;10676;50.848;3.272;2023-05-16T03:23:57;24.63;;;9.73;;
21034;SDS011;10676;50.848;3.272;2023-05-16T03:26:26;19.30;;;9.63;;
21034;SDS011;10676;50.848;3.272;2023-05-16T03:28:51;22.77;;;9.40;;
21034;SDS011;10676;50.848;3.272;2023-05-16T03:31:17;26.17;;;9.27;;
21034;SDS011;10676;50.848;3.272;2023-05-16T03:33:43;20.60;;;9.10;;
21034;SDS011;10676;50.848;3.272;2023-05-16T03:36:09;23.00;;;9.07;;
21034;SDS011;10676;50.848;3.272;2023-05-16T03:38:35;23.97;;;10.50;;
21034;SDS011;10676;50.848;3.272;2023-05-16T03:41:01;23.97;;;9.83;;
21034;SDS011;10676;50.848;3.272;2023-05-16T03:43:27;22.33;;;9.33;;
21034;SDS011;10676;50.848;3.272;2023-05-16T03:45:52;21.47;;;9.57;;
21034;SDS011;10676;50.848;3.272;2023-05-16T03:48:18;15.80;;;8.67;;
21034;SDS011;10676;50.848;3.272;2023-05-16T03:50:44;19.47;;;8.90;;
21034;SDS011;10676;50.848;3.272;2023-05-16T03:53:10;27.93;;;9.83;;
21034;SDS011;10676;50.848;3.272;2023-05-16T03:55:36;21.97;;;9.87;;
21034;SDS011;10676;50.848;3.272;2023-05-16T03:58:02;20.43;;;9.33;;
21034;SDS011;10676;50.848;3.272;2023-05-16T04:00:27;29.97;;;9.47;;
21034;SDS011;10676;50.848;3.272;2023-05-16T04:02:53;25.77;;;9.90;;
21034;SDS011;10676;50.848;3.272;2023-05-16T04:05:19;23.60;;;10.40;;
21034;SDS011;10676;50.848;3.272;2023-05-16T04:07:45;20.17;;;9.97;;
21034;SDS011;10676;50.848;3.272;2023-05-16T04:10:11;22.00;;;9.57;;
21034;SDS011;10676;50.848;3.272;2023-05-16T04:12:38;25.00;;;10.67;;
21034;SDS011;10676;50.848;3.272;2023-05-16T04:15:04;25.33;;;10.40;;
21034;SDS011;10676;50.848;3.272;2023-05-16T04:17:31;22.37;;;10.30;;
21034;SDS011;10676;50.848;3.272;2023-05-16T04:19:58;20.80;;;10.20;;
21034;SDS011;10676;50.848;3.272;2023-05-16T04:22:24;18.47;;;9.70;;
21034;SDS011;10676;50.848;3.272;2023-05-16T04:24:50;22.97;;;9.97;;
21034;SDS011;10676;50.848;3.272;2023-05-16T04:27:16;24.67;;;10.33;;
21034;SDS011;10676;50.848;3.272;2023-05-16T04:29:41;25.27;;;9.70;;
21034;SDS011;10676;50.848;3.272;2023-05-16T04:32:07;25.40;;;10.37;;
21034;SDS011;10676;50.848;3.272;2023-05-16T04:34:33;22.97;;;10.97;;
21034;SDS011;10676;50.848;3.272;2023-05-16T04:37:02;32.67;;;11.43;;
21034;SDS011;10676;50.848;3.272;2023-05-16T04:39:29;22.42;;;10.38;;
21034;SDS011;10676;50.848;3.272;2023-05-16T04:41:55;19.07;;;10.57;;
21034;SDS011;10676;50.848;3.272;2023-05-16T04:44:23;28.63;;;10.07;;
21034;SDS011;10676;50.848;3.272;2023-05-16T04:46:50;23.92;;;9.82;;
21034;SDS011;10676;50.848;3.272;2023-05-16T04:49:17;21.58;;;9.32;;
21034;SDS011;10676;50.848;3.272;2023-05-16T04:51:43;15.98;;;9.35;;
21034;SDS011;10676;50.848;3.272;2023-05-16T04:54:09;19.25;;;8.45;;
21034;SDS011;10676;50.848;3.272;2023-05-16T04:56:35;19.83;;;8.20;;
21034;SDS011;10676;50.848;3.272;2023-05-16T04:59:00;21.30;;;8.60;;
21034;SDS011;10676;50.848;3.272;2023-05-16T05:01:28;16.02;;;7.78;;
21034;SDS011;10676;50.848;3.272;2023-05-16T05:03:54;15.35;;;7.50;;
21034;SDS011;10676;50.848;3.272;2023-05-16T05:06:19;20.15;;;8.02;;
21034;SDS011;10676;50.848;3.272;2023-05-16T05:08:45;15.27;;;7.80;;
21034;SDS011;10676;50.848;3.272;2023-05-16T05:11:11;20.67;;;7.13;;
21034;SDS011;10676;50.848;3.272;2023-05-16T05:13:37;16.52;;;7.28;;
21034;SDS011;10676;50.848;3.272;2023-05-16T05:16:02;20.48;;;7.95;;
21034;SDS011;10676;50.848;3.272;2023-05-16T05:18:29;27.83;;;8.18;;
21034;SDS011;10676;50.848;3.272;2023-05-16T05:20:55;20.27;;;6.05;;
21034;SDS011;10676;50.848;3.272;2023-05-16T05:23:20;14.13;;;6.18;;
21034;SDS011;10676;50.848;3.272;2023-05-16T05:25:46;14.32;;;6.15;;
21034;SDS011;10676;50.848;3.272;2023-05-16T05:28:12;13.18;;;5.97;;
21034;SDS011;10676;50.848;3.272;2023-05-16T05:30:37;10.15;;;5.28;;
21034;SDS011;10676;50.848;3.272;2023-05-16T05:33:03;14.05;;;7.75;;
21034;SDS011;10676;50.848;3.272;2023-05-16T05:35:30;11.40;;;6.78;;
21034;SDS011;10676;50.848;3.272;2023-05-16T05:37:55;14.25;;;6.05;;
21034;SDS011;10676;50.848;3.272;2023-05-16T05:40:21;13.90;;;5.75;;
21034;SDS011;10676;50.848;3.272;2023-05-16T05:42:46;14.27;;;6.25;;
21034;SDS011;10676;50.848;3.272;2023-05-16T05:45:13;11.13;;;5.38;;
21034;SDS011;10676;50.848;3.272;2023-05-16T05:47:40;10.30;;;5.72;;
21034;SDS011;10676;50.848;3.272;2023-05-16T05:50:06;11.05;;;6.65;;
21034;SDS011;10676;50.848;3.272;2023-05-16T05:52:32;13.60;;;6.78;;
21034;SDS011;10676;50.848;3.272;2023-05-16T05:54:58;15.18;;;6.70;;
21034;SDS011;10676;50.848;3.272;2023-05-16T05:57:24;13.43;;;7.28;;
21034;SDS011;10676;50.848;3.272;2023-05-16T05:59:50;13.63;;;9.23;;
21034;SDS011;10676;50.848;3.272;2023-05-16T06:02:15;14.90;;;10.70;;
21034;SDS011;10676;50.848;3.272;2023-05-16T06:04:41;13.70;;;12.27;;
21034;SDS011;10676;50.848;3.272;2023-05-16T06:07:10;14.23;;;12.85;;
21034;SDS011;10676;50.848;3.272;2023-05-16T06:09:35;15.52;;;12.88;;
21034;SDS011;10676;50.848;3.272;2023-05-16T06:12:01;14.52;;;13.13;;
21034;SDS011;10676;50.848;3.272;2023-05-16T06:14:28;17.50;;;13.40;;
21034;SDS011;10676;50.848;3.272;2023-05-16T06:16:53;15.02;;;13.50;;
21034;SDS011;10676;50.848;3.272;2023-05-16T06:19:19;15.25;;;13.75;;
21034;SDS011;10676;50.848;3.272;2023-05-16T06:21:45;1999.90;;;999.90;;
21034;SDS011;10676;50.848;3.272;2023-05-16T06:24:10;1999.90;;;999.90;;
21034;SDS011;10676;50.848;3.272;2023-05-16T06:26:36;1999.90;;;999.90;;
21034;SDS011;10676;50.848;3.272;2023-05-16T06:29:02;1999.90;;;999.90;;
21034;SDS011;10676;50.848;3.272;2023-05-16T06:31:28;1999.90;;;999.90;;
21034;SDS011;10676;50.848;3.272;2023-05-16T06:33:53;19.67;;;14.13;;
21034;SDS011;10676;50.848;3.272;2023-05-16T06:36:19;15.18;;;13.82;;
21034;SDS011;10676;50.848;3.272;2023-05-16T06:38:44;16.25;;;13.20;;
21034;SDS011;10676;50.848;3.272;2023-05-16T06:41:10;14.68;;;13.48;;
21034;SDS011;10676;50.848;3.272;2023-05-16T06:43:36;16.00;;;12.98;;
21034;SDS011;10676;50.848;3.272;2023-05-16T06:46:02;14.68;;;13.25;;
21034;SDS011;10676;50.848;3.272;2023-05-16T06:48:28;14.43;;;12.98;;
21034;SDS011;10676;50.848;3.272;2023-05-16T06:50:54;16.73;;;14.13;;
21034;SDS011;10676;50.848;3.272;2023-05-16T06:53:19;17.90;;;16.35;;
21034;SDS011;10676;50.848;3.272;2023-05-16T06:55:45;17.00;;;15.35;;
21034;SDS011;10676;50.848;3.272;2023-05-16T06:58:11;16.55;;;15.00;;
21034;SDS011;10676;50.848;3.272;2023-05-16T07:00:37;511.80;;;260.60;;
21034;SDS011;10676;50.848;3.272;2023-05-16T07:03:03;15.23;;;13.82;;
21034;SDS011;10676;50.848;3.272;2023-05-16T07:05:29;15.77;;;14.15;;
21034;SDS011;10676;50.848;3.272;2023-05-16T07:07:55;1999.90;;;999.90;;
21034;SDS011;10676;50.848;3.272;2023-05-16T07:10:20;15.10;;;13.60;;
21034;SDS011;10676;50.848;3.272;2023-05-16T07:12:46;15.80;;;13.48;;
21034;SDS011;10676;50.848;3.272;2023-05-16T07:15:12;15.10;;;13.65;;
21034;SDS011;10676;50.848;3.272;2023-05-16T07:17:38;14.50;;;12.75;;
21034;SDS011;10676;50.848;3.272;2023-05-16T07:20:04;14.85;;;13.52;;
21034;SDS011;10676;50.848;3.272;2023-05-16T07:22:35;17.60;;;15.80;;
21034;SDS011;10676;50.848;3.272;2023-05-16T07:25:01;13.50;;;12.60;;
21034;SDS011;10676;50.848;3.272;2023-05-16T07:27:26;14.13;;;13.00;;
21034;SDS011;10676;50.848;3.272;2023-05-16T07:29:52;17.00;;;14.23;;
21034;SDS011;10676;50.848;3.272;2023-05-16T07:32:18;15.55;;;13.15;;
21034;SDS011;10676;50.848;3.272;2023-05-16T07:34:44;14.68;;;13.25;;
21034;SDS011;10676;50.848;3.272;2023-05-16T07:37:10;14.35;;;12.85;;
21034;SDS011;10676;50.848;3.272;2023-05-16T07:39:39;14.48;;;13.02;;
21034;SDS011;10676;50.848;3.272;2023-05-16T07:42:06;13.65;;;12.10;;
21034;SDS011;10676;50.848;3.272;2023-05-16T07:44:32;13.07;;;11.93;;
21034;SDS011;10676;50.848;3.272;2023-05-16T07:46:58;13.82;;;12.52;;
21034;SDS011;10676;50.848;3.272;2023-05-16T07:49:24;13.38;;;12.18;;
21034;SDS011;10676;50.848;3.272;2023-05-16T07:51:50;12.75;;;11.73;;
21034;SDS011;10676;50.848;3.272;2023-05-16T07:54:16;13.85;;;12.65;;
21034;SDS011;10676;50.848;3.272;2023-05-16T07:56:41;13.55;;;12.45;;
21034;SDS011;10676;50.848;3.272;2023-05-16T07:59:07;13.10;;;12.20;;
21034;SDS011;10676;50.848;3.272;2023-05-16T08:01:33;15.07;;;13.82;;
21034;SDS011;10676;50.848;3.272;2023-05-16T08:03:59;14.95;;;13.70;;
21034;SDS011;10676;50.848;3.272;2023-05-16T08:06:25;14.80;;;12.85;;
21034;SDS011;10676;50.848;3.272;2023-05-16T08:08:50;14.50;;;13.23;;
21034;SDS011;10676;50.848;3.272;2023-05-16T08:11:17;14.82;;;13.52;;
21034;SDS011;10676;50.848;3.272;2023-05-16T08:13:43;1999.90;;;999.90;;
21034;SDS011;10676;50.848;3.272;2023-05-16T08:16:09;1999.90;;;999.90;;
21034;SDS011;10676;50.848;3.272;2023-05-16T08:18:35;14.60;;;13.40;;
21034;SDS011;10676;50.848;3.272;2023-05-16T08:21:01;15.77;;;14.07;;
21034;SDS011;10676;50.848;3.272;2023-05-16T08:23:28;1999.90;;;999.90;;
21034;SDS011;10676;50.848;3.272;2023-05-16T08:25:54;14.07;;;12.77;;
21034;SDS011;10676;50.848;3.272;2023-05-16T08:28:19;14.80;;;12.68;;
21034;SDS011;10676;50.848;3.272;2023-05-16T08:30:45;13.88;;;12.65;;
21034;SDS011;10676;50.848;3.272;2023-05-16T08:33:11;13.88;;;12.82;;
21034;SDS011;10676;50.848;3.272;2023-05-16T08:35:41;14.90;;;13.85;;
21034;SDS011;10676;50.848;3.272;2023-05-16T08:38:07;14.25;;;12.95;;
21034;SDS011;10676;50.848;3.272;2023-05-16T08:40:33;13.23;;;11.93;;
21034;SDS011;10676;50.848;3.272;2023-05-16T08:42:59;11.55;;;10.48;;
21034;SDS011;10676;50.848;3.272;2023-05-16T08:45:25;12.77;;;11.75;;
21034;SDS011;10676;50.848;3.272;2023-05-16T08:47:53;13.93;;;12.65;;
21034;SDS011;10676;50.848;3.272;2023-05-16T08:50:20;13.10;;;11.90;;
21034;SDS011;10676;50.848;3.272;2023-05-16T08:52:46;14.32;;;12.05;;
21034;SDS011;10676;50.848;3.272;2023-05-16T08:55:16;14.50;;;13.27;;
21034;SDS011;10676;50.848;3.272;2023-05-16T08:57:44;14.45;;;13.15;;
21034;SDS011;10676;50.848;3.272;2023-05-16T09:00:10;14.02;;;12.93;;
21034;SDS011;10676;50.848;3.272;2023-05-16T09:02:38;13.57;;;12.43;;
21034;SDS011;10676;50.848;3.272;2023-05-16T09:05:04;12.55;;;11.48;;
21034;SDS011;10676;50.848;3.272;2023-05-16T09:07:32;11.70;;;10.90;;
21034;SDS011;10676;50.848;3.272;2023-05-16T09:09:58;13.43;;;12.15;;
21034;SDS011;10676;50.848;3.272;2023-05-16T09:12:23;12.23;;;11.35;;
21034;SDS011;10676;50.848;3.272;2023-05-16T09:14:49;13.73;;;11.88;;
21034;SDS011;10676;50.848;3.272;2023-05-16T09:17:16;11.68;;;10.88;;
21034;SDS011;10676;50.848;3.272;2023-05-16T09:19:42;12.80;;;11.77;;
21034;SDS011;10676;50.848;3.272;2023-05-16T09:22:10;12.13;;;11.32;;
21034;SDS011;10676;50.848;3.272;2023-05-16T09:24:39;13.30;;;12.38;;
21034;SDS011;10676;50.848;3.272;2023-05-16T09:27:09;13.73;;;12.55;;
21034;SDS011;10676;50.848;3.272;2023-05-16T09:29:38;1999.90;;;999.90;;
21034;SDS011;10676;50.848;3.272;2023-05-16T09:32:09;1999.90;;;999.90;;
21034;SDS011;10676;50.848;3.272;2023-05-16T09:34:41;1999.90;;;999.90;;
21034;SDS011;10676;50.848;3.272;2023-05-16T09:37:09;1999.90;;;999.90;;
21034;SDS011;10676;50.848;3.272;2023-05-16T09:39:44;1999.90;;;999.90;;
21034;SDS011;10676;50.848;3.272;2023-05-16T09:42:12;1999.90;;;999.90;;
21034;SDS011;10676;50.848;3.272;2023-05-16T09:44:39;1999.90;;;999.90;;
21034;SDS011;10676;50.848;3.272;2023-05-16T09:47:05;1999.90;;;999.90;;
21034;SDS011;10676;50.848;3.272;2023-05-16T09:49:31;14.45;;;13.27;;
21034;SDS011;10676;50.848;3.272;2023-05-16T09:52:00;17.15;;;13.60;;
21034;SDS011;10676;50.848;3.272;2023-05-16T09:54:29;1999.90;;;999.90;;
21034;SDS011;10676;50.848;3.272;2023-05-16T09:56:56;1999.90;;;999.90;;
21034;SDS011;10676;50.848;3.272;2023-05-16T09:59:22;1999.90;;;999.90;;
21034;SDS011;10676;50.848;3.272;2023-05-16T10:01:48;1999.90;;;999.90;;
21034;SDS011;10676;50.848;3.272;2023-05-16T10:04:17;13.60;;;12.65;;
21034;SDS011;10676;50.848;3.272;2023-05-16T10:06:42;12.43;;;11.65;;
21034;SDS011;10676;50.848;3.272;2023-05-16T10:09:10;12.57;;;11.70;;
21034;SDS011;10676;50.848;3.272;2023-05-16T10:11:40;12.73;;;11.90;;
21034;SDS011;10676;50.848;3.272;2023-05-16T10:14:10;12.68;;;11.65;;
21034;SDS011;10676;50.848;3.272;2023-05-16T10:16:39;11.35;;;10.55;;
21034;SDS011;10676;50.848;3.272;2023-05-16T10:19:07;12.35;;;11.52;;
21034;SDS011;10676;50.848;3.272;2023-05-16T10:21:33;12.90;;;11.90;;
21034;SDS011;10676;50.848;3.272;2023-05-16T10:24:02;13.13;;;12.02;;
21034;SDS011;10676;50.848;3.272;2023-05-16T10:26:30;15.52;;;14.07;;
21034;SDS011;10676;50.848;3.272;2023-05-16T10:28:57;14.38;;;13.43;;
21034;SDS011;10676;50.848;3.272;2023-05-16T10:31:23;13.60;;;12.60;;
21034;SDS011;10676;50.848;3.272;2023-05-16T10:33:49;15.65;;;14.48;;
21034;SDS011;10676;50.848;3.272;2023-05-16T10:36:15;16.00;;;14.70;;
21034;SDS011;10676;50.848;3.272;2023-05-16T10:38:42;17.13;;;15.85;;
21034;SDS011;10676;50.848;3.272;2023-05-16T10:41:10;15.20;;;14.00;;
21034;SDS011;10676;50.848;3.272;2023-05-16T10:43:37;15.50;;;14.38;;
21034;SDS011;10676;50.848;3.272;2023-05-16T10:46:03;15.10;;;14.00;;
21034;SDS011;10676;50.848;3.272;2023-05-16T10:48:37;15.00;;;14.15;;
21034;SDS011;10676;50.848;3.272;2023-05-16T10:54:03;16.85;;;15.68;;
21034;SDS011;10676;50.848;3.272;2023-05-16T10:56:31;17.08;;;15.95;;
21034;SDS011;10676;50.848;3.272;2023-05-16T10:58:57;1504.43;;;754.08;;
21034;SDS011;10676;50.848;3.272;2023-05-16T11:01:27;16.20;;;15.05;;
21034;SDS011;10676;50.848;3.272;2023-05-16T11:09:06;1999.90;;;999.90;;
21034;SDS011;10676;50.848;3.272;2023-05-16T11:11:42;1999.90;;;999.90;;
21034;SDS011;10676;50.848;3.272;2023-05-16T11:19:41;1999.90;;;999.90;;
21034;SDS011;10676;50.848;3.272;2023-05-16T11:24:36;1999.90;;;999.90;;
21034;SDS011;10676;50.848;3.272;2023-05-16T11:27:03;1999.90;;;999.90;;
21034;SDS011;10676;50.848;3.272;2023-05-16T11:29:30;1999.90;;;999.90;;
21034;SDS011;10676;50.848;3.272;2023-05-16T11:31:58;1999.90;;;999.90;;
21034;SDS011;10676;50.848;3.272;2023-05-16T11:34:25;1999.90;;;999.90;;
21034;SDS011;10676;50.848;3.272;2023-05-16T11:36:50;1504.32;;;754.05;;
21034;SDS011;10676;50.848;3.272;2023-05-16T11:39:16;1504.28;;;753.97;;
21034;SDS011;10676;50.848;3.272;2023-05-16T11:41:45;1504.15;;;753.88;;
21034;SDS011;10676;50.848;3.272;2023-05-16T11:44:11;1999.90;;;999.90;;
21034;SDS011;10676;50.848;3.272;2023-05-16T11:46:40;1999.90;;;999.90;;
21034;SDS011;10676;50.848;3.272;2023-05-16T11:49:06;16.05;;;14.82;;
21034;SDS011;10676;50.848;3.272;2023-05-16T11:51:38;16.40;;;15.40;;
21034;SDS011;10676;50.848;3.272;2023-05-16T11:54:10;14.10;;;13.20;;
21034;SDS011;10676;50.848;3.272;2023-05-16T11:56:39;14.48;;;13.55;;
21034;SDS011;10676;50.848;3.272;2023-05-16T11:59:05;14.27;;;13.30;;
21034;SDS011;10676;50.848;3.272;2023-05-16T12:01:35;15.85;;;14.70;;
21034;SDS011;10676;50.848;3.272;2023-05-16T12:04:11;1999.90;;;999.90;;
21034;SDS011;10676;50.848;3.272;2023-05-16T12:06:39;1999.90;;;999.90;;
21034;SDS011;10676;50.848;3.272;2023-05-16T12:09:05;1999.90;;;999.90;;
21034;SDS011;10676;50.848;3.272;2023-05-16T12:11:38;1999.90;;;999.90;;
21034;SDS011;10676;50.848;3.272;2023-05-16T12:14:07;1999.90;;;999.90;;
21034;SDS011;10676;50.848;3.272;2023-05-16T12:16:37;1999.90;;;999.90;;
21034;SDS011;10676;50.848;3.272;2023-05-16T12:19:06;1999.90;;;999.90;;
21034;SDS011;10676;50.848;3.272;2023-05-16T12:21:33;1999.90;;;999.90;;
21034;SDS011;10676;50.848;3.272;2023-05-16T12:23:59;1999.90;;;999.90;;
21034;SDS011;10676;50.848;3.272;2023-05-16T12:26:29;1999.90;;;999.90;;
21034;SDS011;10676;50.848;3.272;2023-05-16T12:28:57;1999.90;;;999.90;;
21034;SDS011;10676;50.848;3.272;2023-05-16T12:31:26;1999.90;;;999.90;;
21034;SDS011;10676;50.848;3.272;2023-05-16T12:33:54;1999.90;;;999.90;;
21034;SDS011;10676;50.848;3.272;2023-05-16T12:36:21;1999.90;;;999.90;;
21034;SDS011;10676;50.848;3.272;2023-05-16T12:38:48;1999.90;;;999.90;;
21034;SDS011;10676;50.848;3.272;2023-05-16T12:41:17;1999.90;;;999.90;;
21034;SDS011;10676;50.848;3.272;2023-05-16T12:43:44;1999.90;;;999.90;;
21034;SDS011;10676;50.848;3.272;2023-05-16T12:46:10;1999.90;;;999.90;;
21034;SDS011;10676;50.848;3.272;2023-05-16T12:48:36;1999.90;;;999.90;;
21034;SDS011;10676;50.848;3.272;2023-05-16T12:51:13;1999.90;;;999.90;;
21034;SDS011;10676;50.848;3.272;2023-05-16T12:53:46;1999.90;;;999.90;;
21034;SDS011;10676;50.848;3.272;2023-05-16T12:56:13;1999.90;;;999.90;;
21034;SDS011;10676;50.848;3.272;2023-05-16T12:58:40;1999.90;;;999.90;;
21034;SDS011;10676;50.848;3.272;2023-05-16T13:01:07;1999.90;;;999.90;;
21034;SDS011;10676;50.848;3.272;2023-05-16T13:03:33;1999.90;;;999.90;;
21034;SDS011;10676;50.848;3.272;2023-05-16T13:06:00;1999.90;;;999.90;;
21034;SDS011;10676;50.848;3.272;2023-05-16T13:08:27;1999.90;;;999.90;;
21034;SDS011;10676;50.848;3.272;2023-05-16T13:10:53;1999.90;;;999.90;;
21034;SDS011;10676;50.848;3.272;2023-05-16T13:13:19;1999.90;;;999.90;;
21034;SDS011;10676;50.848;3.272;2023-05-16T13:15:45;1999.90;;;999.90;;
21034;SDS011;10676;50.848;3.272;2023-05-16T13:18:12;1999.90;;;999.90;;
21034;SDS011;10676;50.848;3.272;2023-05-16T13:20:38;1999.90;;;999.90;;
21034;SDS011;10676;50.848;3.272;2023-05-16T13:23:04;1999.90;;;999.90;;
21034;SDS011;10676;50.848;3.272;2023-05-16T13:25:30;1999.90;;;999.90;;
21034;SDS011;10676;50.848;3.272;2023-05-16T13:27:57;1999.90;;;999.90;;
21034;SDS011;10676;50.848;3.272;2023-05-16T13:30:22;1999.90;;;999.90;;
21034;SDS011;10676;50.848;3.272;2023-05-16T13:32:48;1999.90;;;999.90;;
21034;SDS011;10676;50.848;3.272;2023-05-16T13:35:16;1999.90;;;999.90;;
21034;SDS011;10676;50.848;3.272;2023-05-16T13:37:42;1999.90;;;999.90;;
21034;SDS011;10676;50.848;3.272;2023-05-16T13:40:08;1999.90;;;999.90;;
21034;SDS011;10676;50.848;3.272;2023-05-16T13:42:34;1999.90;;;999.90;;
21034;SDS011;10676;50.848;3.272;2023-05-16T13:45:01;1999.90;;;999.90;;
21034;SDS011;10676;50.848;3.272;2023-05-16T13:47:27;1999.90;;;999.90;;
21034;SDS011;10676;50.848;3.272;2023-05-16T13:49:53;1999.90;;;999.90;;
21034;SDS011;10676;50.848;3.272;2023-05-16T13:52:19;1999.90;;;999.90;;
21034;SDS011;10676;50.848;3.272;2023-05-16T13:54:45;1999.90;;;999.90;;
21034;SDS011;10676;50.848;3.272;2023-05-16T13:57:11;1999.90;;;999.90;;
21034;SDS011;10676;50.848;3.272;2023-05-16T13:59:37;1999.90;;;999.90;;
21034;SDS011;10676;50.848;3.272;2023-05-16T14:02:03;1999.90;;;999.90;;
21034;SDS011;10676;50.848;3.272;2023-05-16T14:04:29;1999.90;;;999.90;;
21034;SDS011;10676;50.848;3.272;2023-05-16T14:06:55;1999.90;;;999.90;;
21034;SDS011;10676;50.848;3.272;2023-05-16T14:09:22;1999.90;;;999.90;;
21034;SDS011;10676;50.848;3.272;2023-05-16T14:11:47;1999.90;;;999.90;;
21034;SDS011;10676;50.848;3.272;2023-05-16T14:14:13;1999.90;;;999.90;;
21034;SDS011;10676;50.848;3.272;2023-05-16T14:16:39;1999.90;;;999.90;;
21034;SDS011;10676;50.848;3.272;2023-05-16T14:19:09;1999.90;;;999.90;;
21034;SDS011;10676;50.848;3.272;2023-05-16T14:21:34;1999.90;;;999.90;;
21034;SDS011;10676;50.848;3.272;2023-05-16T14:24:00;1999.90;;;999.90;;
21034;SDS011;10676;50.848;3.272;2023-05-16T14:26:26;1999.90;;;999.90;;
21034;SDS011;10676;50.848;3.272;2023-05-16T14:28:51;1999.90;;;999.90;;
21034;SDS011;10676;50.848;3.272;2023-05-16T14:31:17;1999.90;;;999.90;;
21034;SDS011;10676;50.848;3.272;2023-05-16T14:33:43;1999.90;;;999.90;;
21034;SDS011;10676;50.848;3.272;2023-05-16T14:36:09;1999.90;;;999.90;;
21034;SDS011;10676;50.848;3.272;2023-05-16T14:38:34;1999.90;;;999.90;;